Limestone, TN

11:57 PM EST on January 22, 2017 (GMT -0500)
Hensley Lane, Limestone, TN | | Change Station

Elev 1601 ft 36.24 °N, 82.66 °W | Updated 36 seconds ago

Overcast
Overcast
55.6 °F
Feels Like 55.6 °F
N
4.5
Wind Variable Wind from ENE
Gusts 7.6 mph

Today
High -- | Low -- °F
--% Chance of Precip.
Yesterday
High -- | Low -- °F
Precip. -- in
Pressure 29.18 in
Visibility 10.0 miles
Clouds Few 5500 ft
Mostly Cloudy 7500 ft
Overcast 9000 ft
Dew Point 47 °F
Humidity 72%
Rainfall 0.07 in
Snow Depth Not available.
7:37 AM 5:46 PM
Waning Crescent, 21% visible
METAR KTRI 230453Z 04009KT 10SM -RA FEW055 BKN075 OVC090 13/09 A2923 RMK AO2 RAB48 SLP881 P0001 T01280089 402060078
Pressure 29.18 in
Visibility 10.0 miles
Clouds Few 5500 ft
Mostly Cloudy 7500 ft
Overcast 9000 ft
Dew Point 47 °F
Humidity 72%
Rainfall 0.07 in
Snow Depth Not available.
7:37 AM 5:46 PM
Waning Crescent, 21% visible
METAR KTRI 230453Z 04009KT 10SM -RA FEW055 BKN075 OVC090 13/09 A2923 RMK AO2 RAB48 SLP881 P0001 T01280089 402060078

Get Your Daily Forecast Email!

Thanks for signing up!

Be on the lookout for a verification email in your inbox.

You'll start receiving the daily forecast at 8 AM.

×

10-Day Weather Forecast

Almanac

Astronomy

Jan. 22, 2017 Rise Set
Actual Time
Civil Twilight
Nautical Twilight
Astronomical Twilight
Moon
Length of Visible Light
Length of Day
Tomorrow will be .
, % of the Moon is Illuminated

Today's Extremes

State Highs State Lows

Community

WunderPhotos

Upload Photos

1,962,540 photos uploaded!

WunderBlog® & News

Nearby

Air Quality

  Air Quality AQ Index Pollutant
Not available.

Snow Depth

Station Depth Elevation

Earthquake Activity

City Distance Mag. Time & Date
Minimum magnitude displayed is 2.5.

Coastal Water Temperatures

Place Temperature

Stations

Nearby Weather Stations

Station Location Temp. Windchill Dew Point Humidity Wind Precip. Elev Updated Type
                   

Watches & Warnings

There are currently no watches in effect.